Time;durP1;ratioP1;P1;durP2;ratioP2;P2;SDS_P1;SDS_P2;PMS_P1;PMS_P2;Temp;Humidity;BMP_temperature;BMP_pressure;BME280_temperature;BME280_humidity;BME280_pressure;Samples;Min_cycle;Max_cycle;Signal;HPM_P1;HPM_P2
2021/11/27 00:00:40;;;;;;;4.47;0.93;;;;;;;;;;5053816;28;20037;-36
2021/11/27 00:03:05;;;;;;;1.40;1.30;;;;;;;;;;5053996;28;20031;-35
2021/11/27 00:05:34;;;;;;;1.30;1.08;;;;;;;;;;5053790;28;20108;-36
2021/11/27 00:08:00;;;;;;;1.95;0.98;;;;;;;;;;5053901;28;20072;-36
2021/11/27 00:10:26;;;;;;;1.30;1.20;;;;;;;;;;5053818;28;20056;-36
2021/11/27 00:12:52;;;;;;;1.20;0.88;;;;;;;;;;5053638;28;20064;-36
2021/11/27 00:15:18;;;;;;;0.90;0.80;;;;;;;;;;5052558;28;20451;-36
2021/11/27 00:17:44;;;;;;;3.53;0.98;;;;;;;;;;5053914;28;20483;-36
2021/11/27 00:20:11;;;;;;;0.90;0.82;;;;;;;;;;5053720;28;20017;-36
2021/11/27 00:22:37;;;;;;;1.63;1.02;;;;;;;;;;5053704;28;20104;-36
2021/11/27 00:25:04;;;;;;;1.50;1.15;;;;;;;;;;5053789;28;20051;-36
2021/11/27 00:27:29;;;;;;;2.22;1.20;;;;;;;;;;5053443;28;20511;-36
2021/11/27 00:29:55;;;;;;;3.42;1.40;;;;;;;;;;5035507;28;20103;-36
2021/11/27 00:32:22;;;;;;;2.97;1.30;;;;;;;;;;5053297;28;20048;-36
2021/11/27 00:34:48;;;;;;;2.90;1.52;;;;;;;;;;5053522;28;20021;-35
2021/11/27 00:37:13;;;;;;;2.67;1.88;;;;;;;;;;5053359;28;20567;-36
2021/11/27 00:39:39;;;;;;;3.22;1.40;;;;;;;;;;5051878;28;20490;-36
2021/11/27 00:42:04;;;;;;;3.17;1.73;;;;;;;;;;5051882;28;20057;-36
2021/11/27 00:44:30;;;;;;;0.93;0.90;;;;;;;;;;5053160;28;20103;-36
2021/11/27 00:46:55;;;;;;;2.80;1.30;;;;;;;;;;5051757;28;20060;-36
2021/11/27 00:49:21;;;;;;;1.58;1.25;;;;;;;;;;5053105;28;20020;-35
2021/11/27 00:51:48;;;;;;;0.80;0.80;;;;;;;;;;5051804;28;20040;-36
2021/11/27 00:54:15;;;;;;;0.80;0.80;;;;;;;;;;5052894;28;20025;-36
2021/11/27 00:56:41;;;;;;;1.27;1.17;;;;;;;;;;5034788;28;20021;-36
2021/11/27 00:59:06;;;;;;;1.17;0.98;;;;;;;;;;5052901;28;20032;-36
2021/11/27 01:01:32;;;;;;;1.55;0.95;;;;;;;;;;5052590;28;20041;-36
2021/11/27 01:03:59;;;;;;;3.60;1.80;;;;;;;;;;5034927;28;20040;-35
2021/11/27 01:06:25;;;;;;;5.20;1.88;;;;;;;;;;5034712;28;20025;-36
2021/11/27 01:08:52;;;;;;;5.20;2.10;;;;;;;;;;5052975;28;20047;-35
2021/11/27 01:11:26;;;;;;;4.32;1.85;;;;;;;;;;5051203;28;20044;-36
2021/11/27 01:13:54;;;;;;;4.78;2.60;;;;;;;;;;5051372;28;20040;-36
2021/11/27 01:16:21;;;;;;;1.65;1.55;;;;;;;;;;5052480;28;20016;-36
2021/11/27 01:18:47;;;;;;;1.75;1.10;;;;;;;;;;5034638;28;20036;-36
2021/11/27 01:21:14;;;;;;;0.77;0.77;;;;;;;;;;5052742;28;20121;-36
2021/11/27 01:23:40;;;;;;;0.77;0.77;;;;;;;;;;5052232;28;20033;-36
2021/11/27 01:26:05;;;;;;;0.90;0.82;;;;;;;;;;5034630;28;20021;-36
2021/11/27 01:28:31;;;;;;;1.83;1.13;;;;;;;;;;5034348;28;20059;-36
2021/11/27 01:30:58;;;;;;;0.88;0.70;;;;;;;;;;5052548;28;20025;-36
2021/11/27 01:33:25;;;;;;;0.77;0.77;;;;;;;;;;5034354;28;20388;-36
2021/11/27 01:35:52;;;;;;;1.00;0.90;;;;;;;;;;5050792;28;20020;-35
2021/11/27 01:38:18;;;;;;;1.20;1.00;;;;;;;;;;5050777;28;20533;-36
2021/11/27 01:40:44;;;;;;;1.02;0.85;;;;;;;;;;5050799;28;20452;-35
2021/11/27 01:43:10;;;;;;;1.30;1.08;;;;;;;;;;5034090;28;20037;-35
2021/11/27 01:45:35;;;;;;;1.58;1.48;;;;;;;;;;5052266;28;20521;-36
2021/11/27 01:48:03;;;;;;;1.67;1.02;;;;;;;;;;5051882;28;20044;-35
2021/11/27 01:50:30;;;;;;;2.05;1.25;;;;;;;;;;5034008;28;20064;-36
2021/11/27 01:52:56;;;;;;;0.88;0.68;;;;;;;;;;5050625;28;20029;-35
2021/11/27 01:55:21;;;;;;;1.95;1.10;;;;;;;;;;5050452;28;20025;-36
2021/11/27 01:57:47;;;;;;;1.77;0.80;;;;;;;;;;5033747;28;20131;-35
2021/11/27 02:00:16;;;;;;;0.77;0.70;;;;;;;;;;5050255;28;20526;-35
2021/11/27 02:02:42;;;;;;;1.17;1.10;;;;;;;;;;5051973;28;20055;-35
2021/11/27 02:05:07;;;;;;;0.63;0.63;;;;;;;;;;5033749;28;20033;-35
2021/11/27 02:07:33;;;;;;;2.47;1.15;;;;;;;;;;5033019;28;20020;-36
2021/11/27 02:09:59;;;;;;;1.15;0.70;;;;;;;;;;5051749;28;20021;-36
2021/11/27 02:12:25;;;;;;;0.65;0.65;;;;;;;;;;5033403;28;20131;-36
2021/11/27 02:14:51;;;;;;;0.82;0.60;;;;;;;;;;5033712;28;20087;-36
2021/11/27 02:17:20;;;;;;;0.80;0.60;;;;;;;;;;5033449;28;20040;-36
2021/11/27 02:19:48;;;;;;;0.88;0.70;;;;;;;;;;5050117;28;20467;-36
2021/11/27 02:22:14;;;;;;;0.52;0.52;;;;;;;;;;5033599;28;20028;-36
2021/11/27 02:24:45;;;;;;;0.77;0.63;;;;;;;;;;5033388;28;20061;-36
2021/11/27 02:27:12;;;;;;;0.65;0.50;;;;;;;;;;5050043;28;20036;-36
2021/11/27 02:29:38;;;;;;;0.75;0.75;;;;;;;;;;5049908;28;20471;-35
2021/11/27 02:32:05;;;;;;;1.52;1.10;;;;;;;;;;5051574;28;20094;-36
2021/11/27 02:34:31;;;;;;;2.70;0.85;;;;;;;;;;5016823;28;20111;-36
2021/11/27 02:36:58;;;;;;;0.40;0.40;;;;;;;;;;5049801;28;20523;-36
2021/11/27 02:39:24;;;;;;;1.42;0.55;;;;;;;;;;5051166;28;20028;-36
2021/11/27 02:41:53;;;;;;;0.50;0.50;;;;;;;;;;5051064;28;20025;-35
2021/11/27 02:44:21;;;;;;;0.88;0.43;;;;;;;;;;5033225;28;20025;-36
2021/11/27 02:46:46;;;;;;;0.75;0.75;;;;;;;;;;5051400;28;20375;-36
2021/11/27 02:49:12;;;;;;;0.77;0.60;;;;;;;;;;5033207;28;20024;-36
2021/11/27 02:51:37;;;;;;;0.80;0.80;;;;;;;;;;5049725;28;20037;-36
2021/11/27 02:54:03;;;;;;;0.50;0.50;;;;;;;;;;5050966;28;20017;-35
2021/11/27 02:56:29;;;;;;;0.50;0.50;;;;;;;;;;5049699;28;20388;-35
2021/11/27 02:58:54;;;;;;;1.17;0.50;;;;;;;;;;5049683;28;20033;-36
2021/11/27 03:01:20;;;;;;;0.50;0.50;;;;;;;;;;5049293;28;20053;-36
2021/11/27 03:03:48;;;;;;;0.30;0.30;;;;;;;;;;5033274;28;20488;-35
2021/11/27 03:06:13;;;;;;;0.50;0.50;;;;;;;;;;5033048;28;20035;-36
2021/11/27 03:08:39;;;;;;;3.13;0.47;;;;;;;;;;5049606;28;20036;-36
2021/11/27 03:11:05;;;;;;;0.52;0.50;;;;;;;;;;5049652;28;20032;-36
2021/11/27 03:13:32;;;;;;;0.90;0.60;;;;;;;;;;5050971;28;20490;-36
2021/11/27 03:15:58;;;;;;;1.10;0.50;;;;;;;;;;5033006;28;20068;-35
2021/11/27 03:18:23;;;;;;;0.60;0.45;;;;;;;;;;5049570;28;20067;-35
2021/11/27 03:20:50;;;;;;;1.95;0.75;;;;;;;;;;5053399;28;20112;-36
2021/11/27 03:23:16;;;;;;;0.40;0.40;;;;;;;;;;5053485;28;20029;-36
2021/11/27 03:25:41;;;;;;;0.40;0.40;;;;;;;;;;5053243;28;20099;-35
2021/11/27 03:28:07;;;;;;;1.77;0.60;;;;;;;;;;5036853;28;20379;-36
2021/11/27 03:30:33;;;;;;;0.40;0.40;;;;;;;;;;5036495;28;20544;-35
2021/11/27 03:33:01;;;;;;;0.52;0.52;;;;;;;;;;5053265;28;20017;-35
2021/11/27 03:35:27;;;;;;;0.60;0.60;;;;;;;;;;5054463;28;20438;-35
2021/11/27 03:37:52;;;;;;;0.70;0.70;;;;;;;;;;5036448;28;20036;-37
2021/11/27 03:40:25;;;;;;;0.30;0.30;;;;;;;;;;5054321;28;20482;-36
2021/11/27 03:42:53;;;;;;;0.40;0.40;;;;;;;;;;5036400;28;20033;-35
2021/11/27 03:45:21;;;;;;;1.35;0.40;;;;;;;;;;5052947;28;20111;-36
2021/11/27 03:47:55;;;;;;;0.40;0.40;;;;;;;;;;5054335;28;20025;-37
2021/11/27 03:50:20;;;;;;;0.30;0.30;;;;;;;;;;5054150;28;20070;-36
2021/11/27 03:52:46;;;;;;;0.40;0.40;;;;;;;;;;5054174;28;20100;-36
2021/11/27 03:55:13;;;;;;;2.85;0.40;;;;;;;;;;5052741;28;20033;-36
2021/11/27 03:57:39;;;;;;;0.30;0.30;;;;;;;;;;5036100;28;20052;-36
2021/11/27 04:00:06;;;;;;;0.40;0.40;;;;;;;;;;5054023;28;20467;-36
2021/11/27 04:02:40;;;;;;;0.30;0.30;;;;;;;;;;5054076;28;20048;-36
2021/11/27 04:05:06;;;;;;;0.65;0.40;;;;;;;;;;5036058;28;20047;-35
2021/11/27 04:07:32;;;;;;;0.40;0.40;;;;;;;;;;5053770;28;20021;-36
2021/11/27 04:09:58;;;;;;;0.68;0.55;;;;;;;;;;5036047;28;20372;-36
2021/11/27 04:12:24;;;;;;;2.78;0.45;;;;;;;;;;5035604;28;20020;-36
2021/11/27 04:14:49;;;;;;;0.82;0.50;;;;;;;;;;5035899;28;20034;-36
2021/11/27 04:17:15;;;;;;;0.40;0.40;;;;;;;;;;5053718;28;20506;-35
2021/11/27 04:19:43;;;;;;;1.45;1.10;;;;;;;;;;5052161;28;20037;-36
2021/11/27 04:22:09;;;;;;;0.70;0.70;;;;;;;;;;5053644;28;20096;-35
2021/11/27 04:24:38;;;;;;;0.50;0.50;;;;;;;;;;5052128;28;20044;-35
2021/11/27 04:27:05;;;;;;;0.30;0.30;;;;;;;;;;5052221;28;20033;-35
2021/11/27 04:29:31;;;;;;;0.40;0.40;;;;;;;;;;5035908;28;20044;-36
2021/11/27 04:31:57;;;;;;;0.75;0.50;;;;;;;;;;5051423;28;20029;-35
2021/11/27 04:34:23;;;;;;;0.50;0.40;;;;;;;;;;5051991;28;20021;-35
2021/11/27 04:36:49;;;;;;;0.52;0.30;;;;;;;;;;5051910;28;20025;-35
2021/11/27 04:39:14;;;;;;;0.30;0.30;;;;;;;;;;5053652;28;20037;-35
2021/11/27 04:41:40;;;;;;;0.30;0.30;;;;;;;;;;5051848;28;20036;-35
2021/11/27 04:44:06;;;;;;;0.30;0.30;;;;;;;;;;5053190;28;20029;-36
2021/11/27 04:46:31;;;;;;;0.57;0.57;;;;;;;;;;5035354;28;20450;-35
2021/11/27 04:48:57;;;;;;;0.35;0.35;;;;;;;;;;5035106;28;20505;-35
2021/11/27 04:51:22;;;;;;;0.50;0.50;;;;;;;;;;5052967;28;20013;-36
2021/11/27 04:53:49;;;;;;;0.35;0.35;;;;;;;;;;5051820;28;20392;-36
2021/11/27 04:56:14;;;;;;;0.30;0.30;;;;;;;;;;5034981;28;20017;-36
2021/11/27 04:58:40;;;;;;;0.30;0.30;;;;;;;;;;5051663;28;20072;-36
2021/11/27 05:01:09;;;;;;;0.40;0.40;;;;;;;;;;5034711;28;20045;-35
2021/11/27 05:03:49;;;;;;;0.30;0.30;;;;;;;;;;5051605;28;20043;-36
2021/11/27 05:06:14;;;;;;;1.05;1.05;;;;;;;;;;5034865;28;20029;-36
2021/11/27 05:08:40;;;;;;;7.15;0.40;;;;;;;;;;5051473;28;20033;-35
2021/11/27 05:11:05;;;;;;;0.93;0.40;;;;;;;;;;5034779;28;20664;-35
2021/11/27 05:13:32;;;;;;;1.20;0.88;;;;;;;;;;5051196;28;20029;-35
2021/11/27 05:15:57;;;;;;;0.80;0.40;;;;;;;;;;5034786;28;20029;-36
2021/11/27 05:18:23;;;;;;;0.40;0.40;;;;;;;;;;5052347;28;20029;-36
2021/11/27 05:20:57;;;;;;;0.45;0.30;;;;;;;;;;5052810;28;20040;-37
2021/11/27 05:23:23;;;;;;;0.20;0.20;;;;;;;;;;5052441;28;20074;-35
2021/11/27 05:25:49;;;;;;;1.08;0.50;;;;;;;;;;5034564;28;20447;-36
2021/11/27 05:28:33;;;;;;;0.50;0.50;;;;;;;;;;5052627;28;20103;-35
2021/11/27 05:31:18;;;;;;;0.30;0.30;;;;;;;;;;5052330;28;20056;-35
2021/11/27 05:36:18;;;;;;;0.28;0.25;;;;;;;;;;5051013;28;20044;-36
2021/11/27 05:38:44;;;;;;;0.50;0.28;;;;;;;;;;5051920;28;20605;-36
2021/11/27 05:41:10;;;;;;;0.40;0.40;;;;;;;;;;5051899;28;20087;-35
2021/11/27 05:43:36;;;;;;;1.17;0.43;;;;;;;;;;5049777;28;20032;-36
2021/11/27 05:46:02;;;;;;;2.75;0.65;;;;;;;;;;5033947;28;20021;-36
2021/11/27 05:48:32;;;;;;;1.52;0.47;;;;;;;;;;5050650;28;20033;-35
2021/11/27 05:51:16;;;;;;;1.00;0.57;;;;;;;;;;5052227;28;20056;-35
2021/11/27 05:53:42;;;;;;;0.40;0.40;;;;;;;;;;5052073;28;20024;-35
2021/11/27 05:56:09;;;;;;;0.50;0.50;;;;;;;;;;5051635;28;20476;-35
2021/11/27 05:58:34;;;;;;;2.38;0.60;;;;;;;;;;5051746;28;20044;-35
2021/11/27 06:01:05;;;;;;;1.83;0.40;;;;;;;;;;5051703;28;20041;-35
2021/11/27 06:03:31;;;;;;;3.67;0.93;;;;;;;;;;5051686;28;20033;-36
2021/11/27 06:05:56;;;;;;;2.60;0.73;;;;;;;;;;5051777;28;20036;-36
2021/11/27 06:08:22;;;;;;;6.40;0.93;;;;;;;;;;5051360;28;20041;-35
2021/11/27 06:10:47;;;;;;;1.38;0.63;;;;;;;;;;5051646;28;20028;-35
2021/11/27 06:13:13;;;;;;;4.53;0.77;;;;;;;;;;5017287;28;20033;-36
2021/11/27 06:15:38;;;;;;;1.60;1.38;;;;;;;;;;5051633;28;20075;-35
2021/11/27 06:18:04;;;;;;;1.05;0.90;;;;;;;;;;5051416;28;20065;-35
2021/11/27 06:20:29;;;;;;;3.83;0.88;;;;;;;;;;5051262;28;20078;-35
2021/11/27 06:22:55;;;;;;;5.15;0.93;;;;;;;;;;5051750;28;20490;-35
2021/11/27 06:25:20;;;;;;;1.02;0.80;;;;;;;;;;5051482;28;20509;-35
2021/11/27 06:27:46;;;;;;;0.90;0.50;;;;;;;;;;5051182;28;20040;-36
2021/11/27 06:30:11;;;;;;;1.35;1.23;;;;;;;;;;5051387;28;20086;-35
2021/11/27 06:32:37;;;;;;;1.88;0.73;;;;;;;;;;5051187;28;20040;-36
2021/11/27 06:35:03;;;;;;;1.98;0.43;;;;;;;;;;5051175;28;20029;-36
2021/11/27 06:37:28;;;;;;;0.30;0.30;;;;;;;;;;5051145;28;20037;-36
2021/11/27 06:39:54;;;;;;;2.50;0.73;;;;;;;;;;5051060;28;20037;-36
2021/11/27 06:42:19;;;;;;;5.03;0.75;;;;;;;;;;5051432;28;20025;-35
2021/11/27 06:45:05;;;;;;;2.67;0.88;;;;;;;;;;5009979;28;20032;-35
2021/11/27 06:47:48;;;;;;;;;;;;;;;;;;5050346;28;20509;-36
2021/11/27 06:50:13;;;;;;;2.35;0.88;;;;;;;;;;5051545;28;19914;-35
2021/11/27 06:52:39;;;;;;;1.52;0.82;;;;;;;;;;5051108;28;20605;-36
2021/11/27 06:55:05;;;;;;;2.03;0.68;;;;;;;;;;5054117;28;20510;-35
2021/11/27 06:57:31;;;;;;;4.85;0.82;;;;;;;;;;5053826;28;20396;-36
2021/11/27 06:59:56;;;;;;;2.47;0.88;;;;;;;;;;5055260;28;20035;-36
2021/11/27 07:02:40;;;;;;;2.63;0.85;;;;;;;;;;5055095;28;20064;-36
2021/11/27 07:05:24;;;;;;;6.72;3.42;;;;;;;;;;5055239;28;20110;-36
2021/11/27 07:07:53;;;;;;;0.88;0.75;;;;;;;;;;5037206;28;20141;-36
2021/11/27 07:10:43;;;;;;;1.00;0.90;;;;;;;;;;5037029;28;20913;-36
2021/11/27 07:13:18;;;;;;;2.63;1.00;;;;;;;;;;5053648;28;20025;-36
2021/11/27 07:15:47;;;;;;;2.28;1.15;;;;;;;;;;5036866;28;20168;-36
2021/11/27 07:18:12;;;;;;;1.40;0.50;;;;;;;;;;5054781;28;20083;-35
2021/11/27 07:20:38;;;;;;;3.60;1.05;;;;;;;;;;5054687;28;20056;-35
2021/11/27 07:23:04;;;;;;;1.67;0.80;;;;;;;;;;5036839;28;20531;-35
2021/11/27 07:25:32;;;;;;;0.80;0.50;;;;;;;;;;5054553;28;20059;-35
2021/11/27 07:28:16;;;;;;;4.25;0.80;;;;;;;;;;5055035;28;20056;-35
2021/11/27 07:30:42;;;;;;;2.47;0.63;;;;;;;;;;5054390;28;20490;-35
2021/11/27 07:33:07;;;;;;;1.58;0.82;;;;;;;;;;5054591;28;20062;-35
2021/11/27 07:35:33;;;;;;;1.80;0.77;;;;;;;;;;5054465;28;20025;-35
2021/11/27 07:37:59;;;;;;;5.20;1.35;;;;;;;;;;5054634;28;20029;-36
2021/11/27 07:40:25;;;;;;;7.85;1.92;;;;;;;;;;5036373;28;20051;-36
2021/11/27 07:42:52;;;;;;;5.88;1.70;;;;;;;;;;5054295;28;20497;-35
2021/11/27 07:45:44;;;;;;;2.00;0.80;;;;;;;;;;5030702;28;20502;-35
2021/11/27 07:48:19;;;;;;;4.13;1.83;;;;;;;;;;5054351;28;20044;-35
2021/11/27 07:51:05;;;;;;;2.08;0.73;;;;;;;;;;5054463;28;20095;-35
2021/11/27 07:53:37;;;;;;;0.85;0.85;;;;;;;;;;5054147;28;20029;-35
2021/11/27 07:56:04;;;;;;;2.83;1.42;;;;;;;;;;5054165;28;20111;-35
2021/11/27 07:58:29;;;;;;;3.72;1.10;;;;;;;;;;5054070;28;20040;-35
2021/11/27 08:00:55;;;;;;;6.53;0.90;;;;;;;;;;5053872;28;20037;-35
2021/11/27 08:03:20;;;;;;;4.65;0.82;;;;;;;;;;5054019;28;20067;-35
2021/11/27 08:05:46;;;;;;;3.20;1.00;;;;;;;;;;5052911;28;20043;-35
2021/11/27 08:08:12;;;;;;;1.13;1.00;;;;;;;;;;5053929;28;20031;-35
2021/11/27 08:10:37;;;;;;;2.35;1.25;;;;;;;;;;5053794;28;20039;-35
2021/11/27 08:13:03;;;;;;;1.50;1.20;;;;;;;;;;5053851;28;20059;-35
2021/11/27 08:15:28;;;;;;;2.00;0.57;;;;;;;;;;5053520;28;20036;-35
2021/11/27 08:17:54;;;;;;;2.17;1.00;;;;;;;;;;5053956;28;20061;-36
2021/11/27 08:20:20;;;;;;;4.35;1.50;;;;;;;;;;5053793;28;20461;-36
2021/11/27 08:22:46;;;;;;;1.10;1.00;;;;;;;;;;5053795;28;20478;-36
2021/11/27 08:25:11;;;;;;;1.15;0.93;;;;;;;;;;5053728;28;20029;-36
2021/11/27 08:27:37;;;;;;;0.47;0.47;;;;;;;;;;5053465;28;20071;-35
2021/11/27 08:30:04;;;;;;;2.75;0.80;;;;;;;;;;5052110;28;20029;-35
2021/11/27 08:32:30;;;;;;;2.90;0.80;;;;;;;;;;5053517;28;20014;-35
2021/11/27 08:34:56;;;;;;;3.13;1.02;;;;;;;;;;5053600;28;20029;-35
2021/11/27 08:37:22;;;;;;;1.52;1.35;;;;;;;;;;5053303;28;20021;-35
2021/11/27 08:39:48;;;;;;;1.40;1.25;;;;;;;;;;5053212;28;20091;-36
2021/11/27 08:42:13;;;;;;;0.45;0.45;;;;;;;;;;5053269;28;20063;-35
2021/11/27 08:44:39;;;;;;;4.85;1.23;;;;;;;;;;5053159;28;20029;-36
2021/11/27 08:47:04;;;;;;;3.92;0.75;;;;;;;;;;5053149;28;20117;-36
2021/11/27 08:49:30;;;;;;;0.52;0.52;;;;;;;;;;5053149;28;20029;-35
2021/11/27 08:51:56;;;;;;;1.13;0.55;;;;;;;;;;5053227;28;20036;-36
2021/11/27 08:54:21;;;;;;;1.65;0.93;;;;;;;;;;5053074;28;20033;-36
2021/11/27 08:56:48;;;;;;;3.20;0.73;;;;;;;;;;5053232;28;20099;-36
2021/11/27 08:59:13;;;;;;;1.73;0.70;;;;;;;;;;5034958;28;20041;-36
2021/11/27 09:01:41;;;;;;;1.80;1.05;;;;;;;;;;5034889;28;20060;-36
2021/11/27 09:04:06;;;;;;;1.73;1.08;;;;;;;;;;5052806;28;20113;-35
2021/11/27 09:06:32;;;;;;;1.67;0.80;;;;;;;;;;5052714;28;20123;-36
2021/11/27 09:08:58;;;;;;;0.85;0.82;;;;;;;;;;5052908;28;20407;-35
2021/11/27 09:11:25;;;;;;;2.00;0.90;;;;;;;;;;5052479;28;20025;-36
2021/11/27 09:13:51;;;;;;;0.50;0.50;;;;;;;;;;5052753;28;20484;-35
2021/11/27 09:16:17;;;;;;;0.50;0.50;;;;;;;;;;5052497;28;20025;-36
2021/11/27 09:18:43;;;;;;;1.05;0.95;;;;;;;;;;5052604;28;20463;-35
2021/11/27 09:21:09;;;;;;;2.78;1.23;;;;;;;;;;5052592;28;20066;-35
2021/11/27 09:23:35;;;;;;;0.93;0.60;;;;;;;;;;5052620;28;20067;-35
2021/11/27 09:26:00;;;;;;;0.80;0.80;;;;;;;;;;5034767;28;20025;-36
2021/11/27 09:28:26;;;;;;;2.83;1.20;;;;;;;;;;5052340;28;20037;-36
2021/11/27 09:30:52;;;;;;;0.65;0.63;;;;;;;;;;5052304;28;20066;-35
2021/11/27 09:33:18;;;;;;;1.38;0.80;;;;;;;;;;5052402;28;20057;-38
2021/11/27 09:35:56;;;;;;;4.63;0.70;;;;;;;;;;5052200;28;20068;-35
2021/11/27 09:38:22;;;;;;;2.35;1.13;;;;;;;;;;5052249;28;20045;-36
2021/11/27 09:40:50;;;;;;;1.60;0.80;;;;;;;;;;5051975;28;20475;-36
2021/11/27 09:43:15;;;;;;;1.58;0.95;;;;;;;;;;5052124;28;20467;-35
2021/11/27 09:45:41;;;;;;;1.15;0.73;;;;;;;;;;5052047;28;20063;-36
2021/11/27 09:48:08;;;;;;;1.35;0.90;;;;;;;;;;5051860;28;20021;-36
2021/11/27 09:50:33;;;;;;;1.17;0.75;;;;;;;;;;5052236;28;20029;-36
2021/11/27 09:52:59;;;;;;;2.30;0.95;;;;;;;;;;5051966;28;20471;-37
2021/11/27 09:55:25;;;;;;;3.65;1.08;;;;;;;;;;5051828;28;20053;-36
2021/11/27 09:57:50;;;;;;;1.35;0.80;;;;;;;;;;5050570;28;20051;-35
2021/11/27 10:00:18;;;;;;;5.55;1.38;;;;;;;;;;5052005;28;20078;-36
2021/11/27 10:02:44;;;;;;;3.45;0.95;;;;;;;;;;5051527;28;20518;-35
2021/11/27 10:05:11;;;;;;;0.73;0.68;;;;;;;;;;5051773;28;20083;-35
2021/11/27 10:07:38;;;;;;;1.15;0.70;;;;;;;;;;5051629;28;20021;-36
2021/11/27 10:10:03;;;;;;;2.40;0.60;;;;;;;;;;5051924;28;20028;-36
2021/11/27 10:12:29;;;;;;;1.95;1.10;;;;;;;;;;5051376;28;20407;-35
2021/11/27 10:14:55;;;;;;;1.83;1.10;;;;;;;;;;5051657;28;20033;-36
2021/11/27 10:17:21;;;;;;;2.95;0.85;;;;;;;;;;5051439;28;20037;-36
2021/11/27 10:19:55;;;;;;;3.75;0.73;;;;;;;;;;5051317;28;20017;-36
2021/11/27 10:22:23;;;;;;;1.50;0.88;;;;;;;;;;5051502;28;20037;-36
2021/11/27 10:24:48;;;;;;;0.65;0.65;;;;;;;;;;5051277;28;20052;-35
2021/11/27 10:27:24;;;;;;;0.60;0.60;;;;;;;;;;5051532;28;20114;-36
2021/11/27 10:29:56;;;;;;;2.30;1.00;;;;;;;;;;5050515;28;20029;-35
2021/11/27 10:32:25;;;;;;;2.80;0.90;;;;;;;;;;5051338;28;20052;-35
2021/11/27 10:34:54;;;;;;;1.27;0.55;;;;;;;;;;5051025;28;20494;-35
2021/11/27 10:37:20;;;;;;;1.55;0.80;;;;;;;;;;5051197;28;20029;-36
2021/11/27 10:39:56;;;;;;;2.05;0.75;;;;;;;;;;5051132;28;20028;-36
2021/11/27 10:42:22;;;;;;;0.70;0.52;;;;;;;;;;5051187;28;20032;-36
2021/11/27 10:44:51;;;;;;;2.53;1.23;;;;;;;;;;5051125;28;20174;-36
2021/11/27 10:47:17;;;;;;;0.60;0.52;;;;;;;;;;5051184;28;20029;-36
2021/11/27 10:49:44;;;;;;;5.97;1.48;;;;;;;;;;5050948;28;20025;-35
2021/11/27 10:52:12;;;;;;;1.40;0.70;;;;;;;;;;5050929;28;20115;-35
2021/11/27 10:54:47;;;;;;;1.95;1.05;;;;;;;;;;5051020;28;20557;-36
2021/11/27 10:57:32;;;;;;;3.95;1.35;;;;;;;;;;5051121;28;20028;-36
2021/11/27 10:59:59;;;;;;;1.15;0.77;;;;;;;;;;5051036;28;20052;-36
2021/11/27 11:02:26;;;;;;;2.45;0.80;;;;;;;;;;5050815;28;20100;-36
2021/11/27 11:05:03;;;;;;;2.53;0.75;;;;;;;;;;5050987;28;20029;-36
2021/11/27 11:07:30;;;;;;;1.55;0.93;;;;;;;;;;5050780;28;20075;-36
2021/11/27 11:10:07;;;;;;;2.05;0.57;;;;;;;;;;5050868;28;20032;-36
2021/11/27 11:12:37;;;;;;;1.38;0.73;;;;;;;;;;5050926;28;20446;-36
2021/11/27 11:15:14;;;;;;;1.48;0.68;;;;;;;;;;5050927;28;20035;-36
2021/11/27 11:17:41;;;;;;;1.05;0.93;;;;;;;;;;5050694;28;20044;-35
2021/11/27 11:20:13;;;;;;;1.75;1.15;;;;;;;;;;5050781;28;20055;-36
2021/11/27 11:22:39;;;;;;;2.65;1.27;;;;;;;;;;5050674;28;20083;-36
2021/11/27 11:25:06;;;;;;;4.20;1.27;;;;;;;;;;5051122;28;20107;-36
2021/11/27 11:27:35;;;;;;;6.13;1.20;;;;;;;;;;5050669;28;20032;-38
2021/11/27 11:30:02;;;;;;;2.58;0.70;;;;;;;;;;5051000;28;20475;-36
2021/11/27 11:32:28;;;;;;;1.05;0.60;;;;;;;;;;5033241;28;20055;-36
2021/11/27 11:34:54;;;;;;;1.75;1.15;;;;;;;;;;5050558;28;20021;-36
2021/11/27 11:37:21;;;;;;;4.10;2.03;;;;;;;;;;5050695;28;20200;-36
2021/11/27 11:39:47;;;;;;;3.60;1.35;;;;;;;;;;5051300;28;20049;-36
2021/11/27 11:42:12;;;;;;;2.90;1.48;;;;;;;;;;5036568;28;20119;-36
2021/11/27 11:44:41;;;;;;;2.88;1.55;;;;;;;;;;5054378;28;20635;-35
2021/11/27 11:47:07;;;;;;;11.45;1.20;;;;;;;;;;5054329;28;20108;-36
2021/11/27 11:49:33;;;;;;;3.65;1.23;;;;;;;;;;5054143;28;20534;-36
2021/11/27 11:52:17;;;;;;;3.85;1.30;;;;;;;;;;5054438;28;20490;-36
2021/11/27 11:54:43;;;;;;;2.40;1.05;;;;;;;;;;5054446;28;20036;-36
2021/11/27 11:57:10;;;;;;;2.25;1.15;;;;;;;;;;5036158;28;20082;-35
2021/11/27 11:59:37;;;;;;;2.42;1.20;;;;;;;;;;5054003;28;20064;-35
2021/11/27 12:02:15;;;;;;;1.17;0.93;;;;;;;;;;5053877;28;20103;-35
2021/11/27 12:04:59;;;;;;;2.38;1.67;;;;;;;;;;5053913;28;20033;-35
2021/11/27 12:07:43;;;;;;;1.13;0.93;;;;;;;;;;5053926;28;20032;-36
2021/11/27 12:10:13;;;;;;;4.22;1.05;;;;;;;;;;5053845;28;20036;-36
2021/11/27 12:12:39;;;;;;;1.75;0.90;;;;;;;;;;5053768;28;20426;-35
2021/11/27 12:15:07;;;;;;;2.50;1.00;;;;;;;;;;5053427;28;20037;-36
2021/11/27 12:17:34;;;;;;;1.52;0.88;;;;;;;;;;5053894;28;20036;-35
2021/11/27 12:20:02;;;;;;;2.60;0.85;;;;;;;;;;5053834;28;20043;-35
2021/11/27 12:22:31;;;;;;;5.97;1.13;;;;;;;;;;5053716;28;20049;-36
2021/11/27 12:25:12;;;;;;;1.90;1.00;;;;;;;;;;5053593;28;20032;-35
2021/11/27 12:27:56;;;;;;;2.35;1.08;;;;;;;;;;5053481;28;20057;-35
2021/11/27 12:30:22;;;;;;;3.10;0.77;;;;;;;;;;5053501;28;20159;-35
2021/11/27 12:32:47;;;;;;;2.55;1.83;;;;;;;;;;5053370;28;20079;-35
2021/11/27 12:35:32;;;;;;;2.13;0.90;;;;;;;;;;5053604;28;20033;-35
2021/11/27 12:38:07;;;;;;;1.00;0.90;;;;;;;;;;5035237;28;20086;-35
2021/11/27 12:40:37;;;;;;;1.02;0.93;;;;;;;;;;5053275;28;20033;-35
2021/11/27 12:43:10;;;;;;;4.05;1.48;;;;;;;;;;5053188;28;20052;-35
2021/11/27 12:45:37;;;;;;;4.97;1.33;;;;;;;;;;5053267;28;20033;-36
2021/11/27 12:48:21;;;;;;;6.90;1.67;;;;;;;;;;5035231;28;20387;-36
2021/11/27 12:51:07;;;;;;;1.73;1.10;;;;;;;;;;5053144;28;20021;-36
2021/11/27 12:53:32;;;;;;;2.92;1.25;;;;;;;;;;5052707;28;20063;-35
2021/11/27 12:55:59;;;;;;;3.15;1.30;;;;;;;;;;5053121;28;20467;-41
2021/11/27 12:58:29;;;;;;;4.07;1.88;;;;;;;;;;5052912;28;20403;-36
2021/11/27 13:00:55;;;;;;;6.25;1.92;;;;;;;;;;5052659;28;20098;-36
2021/11/27 13:03:21;;;;;;;0.75;0.75;;;;;;;;;;5052894;28;20044;-35
2021/11/27 13:05:46;;;;;;;1.90;0.77;;;;;;;;;;5053019;28;20496;-36
2021/11/27 13:08:24;;;;;;;0.70;0.70;;;;;;;;;;5035016;28;20048;-36
2021/11/27 13:10:52;;;;;;;1.48;0.80;;;;;;;;;;5053063;28;20044;-36
2021/11/27 13:13:22;;;;;;;1.42;0.90;;;;;;;;;;5052683;28;20037;-36
2021/11/27 13:15:49;;;;;;;2.03;1.00;;;;;;;;;;5052576;28;20067;-35
2021/11/27 13:18:16;;;;;;;3.75;1.15;;;;;;;;;;5052618;28;20054;-36
2021/11/27 13:20:42;;;;;;;4.70;1.60;;;;;;;;;;5052441;28;20441;-36
2021/11/27 13:23:08;;;;;;;2.55;1.40;;;;;;;;;;5052686;28;20107;-36
2021/11/27 13:25:41;;;;;;;2.75;1.30;;;;;;;;;;5052432;28;20021;-36
2021/11/27 13:28:17;;;;;;;3.97;1.52;;;;;;;;;;5052408;28;20033;-35
2021/11/27 13:30:43;;;;;;;5.43;1.73;;;;;;;;;;5052505;28;20087;-36
2021/11/27 13:33:09;;;;;;;2.17;1.02;;;;;;;;;;5052387;28;20398;-36
2021/11/27 13:35:36;;;;;;;3.30;1.15;;;;;;;;;;5052443;28;20033;-35
2021/11/27 13:38:01;;;;;;;3.88;1.50;;;;;;;;;;5050821;28;20083;-36
2021/11/27 13:40:28;;;;;;;2.38;0.90;;;;;;;;;;5052221;28;20495;-37
2021/11/27 13:43:00;;;;;;;2.60;1.10;;;;;;;;;;5051946;28;20107;-36
2021/11/27 13:45:25;;;;;;;1.98;1.05;;;;;;;;;;5052230;28;20463;-36
2021/11/27 13:47:58;;;;;;;4.07;1.38;;;;;;;;;;5052024;28;20109;-36
2021/11/27 13:50:24;;;;;;;0.80;0.80;;;;;;;;;;5052008;28;20033;-36
2021/11/27 13:52:50;;;;;;;3.00;1.17;;;;;;;;;;5051962;28;20035;-36
2021/11/27 13:55:18;;;;;;;5.22;1.45;;;;;;;;;;5051923;28;20036;-36
2021/11/27 13:57:45;;;;;;;3.30;2.10;;;;;;;;;;5051660;28;20037;-36
2021/11/27 14:00:15;;;;;;;4.15;2.45;;;;;;;;;;5051710;28;20061;-36
2021/11/27 14:02:40;;;;;;;4.32;2.45;;;;;;;;;;5051415;28;20106;-36
2021/11/27 14:05:07;;;;;;;2.90;2.50;;;;;;;;;;5051165;28;20501;-36
2021/11/27 14:07:44;;;;;;;6.82;3.05;;;;;;;;;;5051850;28;20100;-36
2021/11/27 14:10:11;;;;;;;5.93;2.42;;;;;;;;;;5051628;28;20036;-36
2021/11/27 14:12:39;;;;;;;3.38;2.28;;;;;;;;;;5051480;28;20021;-36
2021/11/27 14:15:08;;;;;;;8.50;2.03;;;;;;;;;;5051652;28;20028;-36
2021/11/27 14:17:34;;;;;;;5.68;1.50;;;;;;;;;;5051273;28;20025;-36
2021/11/27 14:20:08;;;;;;;5.20;1.90;;;;;;;;;;5051525;28;20411;-36
2021/11/27 14:22:34;;;;;;;4.25;1.25;;;;;;;;;;5051291;28;20021;-36
2021/11/27 14:25:10;;;;;;;1.77;1.15;;;;;;;;;;5051734;28;20078;-36
2021/11/27 14:27:53;;;;;;;2.38;1.35;;;;;;;;;;5051354;28;20041;-36
2021/11/27 14:30:18;;;;;;;;;;;;;;;;;;5051830;28;20048;-36
2021/11/27 14:32:44;;;;;;;1.38;1.27;;;;;;;;;;5051150;28;20347;-36
2021/11/27 14:35:23;;;;;;;2.13;1.38;;;;;;;;;;5050018;28;20028;-36
2021/11/27 14:37:49;;;;;;;2.42;0.88;;;;;;;;;;5051344;28;20029;-36
2021/11/27 14:40:15;;;;;;;1.27;1.17;;;;;;;;;;5051426;28;20028;-35
2021/11/27 14:42:40;;;;;;;1.58;1.15;;;;;;;;;;5051166;28;20487;-35
2021/11/27 14:45:06;;;;;;;1.55;1.35;;;;;;;;;;5051106;28;20024;-36
2021/11/27 14:47:40;;;;;;;1.58;1.17;;;;;;;;;;5051111;28;20033;-36
2021/11/27 14:50:10;;;;;;;2.17;1.25;;;;;;;;;;5050925;28;20035;-36